sensor_id;sensor_type;location;lat;lon;timestamp;temperature;humidity
48515;DHT22;34309;47.260;2.796;2023-08-06T00:00:09;21.80;29.60
48515;DHT22;34309;47.260;2.796;2023-08-06T00:02:43;21.80;29.60
48515;DHT22;34309;47.260;2.796;2023-08-06T00:05:17;21.80;29.50
48515;DHT22;34309;47.260;2.796;2023-08-06T00:07:54;21.80;29.70
48515;DHT22;34309;47.260;2.796;2023-08-06T00:10:28;21.70;29.50
48515;DHT22;34309;47.260;2.796;2023-08-06T00:13:02;21.70;29.50
48515;DHT22;34309;47.260;2.796;2023-08-06T00:15:36;21.70;29.50
48515;DHT22;34309;47.260;2.796;2023-08-06T00:18:09;21.70;29.60
48515;DHT22;34309;47.260;2.796;2023-08-06T00:20:43;21.70;29.50
48515;DHT22;34309;47.260;2.796;2023-08-06T00:23:19;21.70;29.80
48515;DHT22;34309;47.260;2.796;2023-08-06T00:26:07;21.70;29.80
48515;DHT22;34309;47.260;2.796;2023-08-06T00:28:41;21.70;29.80
48515;DHT22;34309;47.260;2.796;2023-08-06T00:31:14;21.70;29.60
48515;DHT22;34309;47.260;2.796;2023-08-06T00:33:48;21.70;29.60
48515;DHT22;34309;47.260;2.796;2023-08-06T00:36:22;21.70;29.60
48515;DHT22;34309;47.260;2.796;2023-08-06T00:38:57;21.70;29.50
48515;DHT22;34309;47.260;2.796;2023-08-06T00:41:30;21.70;29.70
48515;DHT22;34309;47.260;2.796;2023-08-06T00:44:04;21.60;29.70
48515;DHT22;34309;47.260;2.796;2023-08-06T00:46:38;21.70;29.80
48515;DHT22;34309;47.260;2.796;2023-08-06T00:49:12;21.60;29.60
48515;DHT22;34309;47.260;2.796;2023-08-06T00:51:46;21.60;29.70
48515;DHT22;34309;47.260;2.796;2023-08-06T00:54:22;21.60;29.70
48515;DHT22;34309;47.260;2.796;2023-08-06T00:56:56;21.60;29.70
48515;DHT22;34309;47.260;2.796;2023-08-06T00:59:31;21.60;29.60
48515;DHT22;34309;47.260;2.796;2023-08-06T01:02:06;21.60;29.50
48515;DHT22;34309;47.260;2.796;2023-08-06T01:04:39;21.60;29.70
48515;DHT22;34309;47.260;2.796;2023-08-06T01:07:21;21.60;29.80
48515;DHT22;34309;47.260;2.796;2023-08-06T01:10:15;21.60;30.00
48515;DHT22;34309;47.260;2.796;2023-08-06T01:12:55;21.60;30.00
48515;DHT22;34309;47.260;2.796;2023-08-06T01:15:37;21.60;30.20
48515;DHT22;34309;47.260;2.796;2023-08-06T01:18:12;21.60;30.30
48515;DHT22;34309;47.260;2.796;2023-08-06T01:20:47;21.60;30.30
48515;DHT22;34309;47.260;2.796;2023-08-06T01:23:22;21.60;30.50
48515;DHT22;34309;47.260;2.796;2023-08-06T01:26:03;21.60;31.40
48515;DHT22;34309;47.260;2.796;2023-08-06T01:28:44;21.60;30.80
48515;DHT22;34309;47.260;2.796;2023-08-06T01:31:24;21.60;30.90
48515;DHT22;34309;47.260;2.796;2023-08-06T01:34:01;21.60;30.90
48515;DHT22;34309;47.260;2.796;2023-08-06T01:36:37;21.60;30.90
48515;DHT22;34309;47.260;2.796;2023-08-06T01:39:11;21.60;31.10
48515;DHT22;34309;47.260;2.796;2023-08-06T01:41:45;21.60;31.10
48515;DHT22;34309;47.260;2.796;2023-08-06T01:44:19;21.60;31.10
48515;DHT22;34309;47.260;2.796;2023-08-06T01:46:53;21.50;31.00
48515;DHT22;34309;47.260;2.796;2023-08-06T01:49:28;21.50;31.00
48515;DHT22;34309;47.260;2.796;2023-08-06T01:52:04;21.50;31.10
48515;DHT22;34309;47.260;2.796;2023-08-06T01:54:38;21.50;31.00
48515;DHT22;34309;47.260;2.796;2023-08-06T01:57:12;21.50;31.10
48515;DHT22;34309;47.260;2.796;2023-08-06T01:59:46;21.50;31.40
48515;DHT22;34309;47.260;2.796;2023-08-06T02:02:20;21.50;31.30
48515;DHT22;34309;47.260;2.796;2023-08-06T02:04:54;21.50;31.30
48515;DHT22;34309;47.260;2.796;2023-08-06T02:07:31;21.50;31.30
48515;DHT22;34309;47.260;2.796;2023-08-06T02:10:06;21.50;31.20
48515;DHT22;34309;47.260;2.796;2023-08-06T02:12:40;21.50;31.10
48515;DHT22;34309;47.260;2.796;2023-08-06T02:15:13;21.50;31.20
48515;DHT22;34309;47.260;2.796;2023-08-06T02:17:47;21.50;31.20
48515;DHT22;34309;47.260;2.796;2023-08-06T02:20:21;21.50;31.20
48515;DHT22;34309;47.260;2.796;2023-08-06T02:22:56;21.50;31.20
48515;DHT22;34309;47.260;2.796;2023-08-06T02:25:33;21.50;31.20
48515;DHT22;34309;47.260;2.796;2023-08-06T02:28:06;21.50;31.20
48515;DHT22;34309;47.260;2.796;2023-08-06T02:30:49;21.50;31.30
48515;DHT22;34309;47.260;2.796;2023-08-06T02:33:23;21.50;31.30
48515;DHT22;34309;47.260;2.796;2023-08-06T02:36:02;21.50;31.10
48515;DHT22;34309;47.260;2.796;2023-08-06T02:38:38;21.50;31.20
48515;DHT22;34309;47.260;2.796;2023-08-06T02:41:07;21.40;31.30
48515;DHT22;34309;47.260;2.796;2023-08-06T02:43:45;21.40;32.00
48515;DHT22;34309;47.260;2.796;2023-08-06T02:46:18;21.40;31.40
48515;DHT22;34309;47.260;2.796;2023-08-06T02:48:52;21.40;31.50
48515;DHT22;34309;47.260;2.796;2023-08-06T02:51:25;21.50;31.70
48515;DHT22;34309;47.260;2.796;2023-08-06T02:54:01;21.40;31.70
48515;DHT22;34309;47.260;2.796;2023-08-06T02:56:34;21.40;31.70
48515;DHT22;34309;47.260;2.796;2023-08-06T02:59:08;21.40;31.70
48515;DHT22;34309;47.260;2.796;2023-08-06T03:01:37;21.40;31.80
48515;DHT22;34309;47.260;2.796;2023-08-06T03:04:10;21.40;31.90
48515;DHT22;34309;47.260;2.796;2023-08-06T03:06:44;21.40;31.90
48515;DHT22;34309;47.260;2.796;2023-08-06T03:09:20;21.40;32.20
48515;DHT22;34309;47.260;2.796;2023-08-06T03:11:54;21.40;32.20
48515;DHT22;34309;47.260;2.796;2023-08-06T03:14:28;21.40;32.20
48515;DHT22;34309;47.260;2.796;2023-08-06T03:17:02;21.40;32.20
48515;DHT22;34309;47.260;2.796;2023-08-06T03:19:36;21.40;32.30
48515;DHT22;34309;47.260;2.796;2023-08-06T03:22:09;21.40;32.30
48515;DHT22;34309;47.260;2.796;2023-08-06T03:24:45;21.40;32.40
48515;DHT22;34309;47.260;2.796;2023-08-06T03:27:18;21.40;32.20
48515;DHT22;34309;47.260;2.796;2023-08-06T03:29:52;21.30;32.20
48515;DHT22;34309;47.260;2.796;2023-08-06T03:32:26;21.30;32.20
48515;DHT22;34309;47.260;2.796;2023-08-06T03:34:59;21.30;32.30
48515;DHT22;34309;47.260;2.796;2023-08-06T03:37:33;21.30;32.30
48515;DHT22;34309;47.260;2.796;2023-08-06T03:40:10;21.40;32.50
48515;DHT22;34309;47.260;2.796;2023-08-06T03:42:43;21.30;32.30
48515;DHT22;34309;47.260;2.796;2023-08-06T03:45:17;21.30;32.50
48515;DHT22;34309;47.260;2.796;2023-08-06T03:47:51;21.30;32.40
48515;DHT22;34309;47.260;2.796;2023-08-06T03:50:25;21.30;32.50
48515;DHT22;34309;47.260;2.796;2023-08-06T03:52:58;21.30;32.50
48515;DHT22;34309;47.260;2.796;2023-08-06T03:55:34;21.30;32.40
48515;DHT22;34309;47.260;2.796;2023-08-06T03:58:08;21.30;32.40
48515;DHT22;34309;47.260;2.796;2023-08-06T04:00:42;21.30;32.50
48515;DHT22;34309;47.260;2.796;2023-08-06T04:03:15;21.30;32.60
48515;DHT22;34309;47.260;2.796;2023-08-06T04:05:49;21.30;32.60
48515;DHT22;34309;47.260;2.796;2023-08-06T04:08:22;21.30;32.70
48515;DHT22;34309;47.260;2.796;2023-08-06T04:10:58;21.30;32.60
48515;DHT22;34309;47.260;2.796;2023-08-06T04:13:31;21.30;32.60
48515;DHT22;34309;47.260;2.796;2023-08-06T04:16:05;21.30;32.60
48515;DHT22;34309;47.260;2.796;2023-08-06T04:18:39;21.30;32.50
48515;DHT22;34309;47.260;2.796;2023-08-06T04:21:13;21.30;32.40
48515;DHT22;34309;47.260;2.796;2023-08-06T04:23:47;21.20;32.40
48515;DHT22;34309;47.260;2.796;2023-08-06T04:26:22;21.20;32.50
48515;DHT22;34309;47.260;2.796;2023-08-06T04:28:56;21.20;32.50
48515;DHT22;34309;47.260;2.796;2023-08-06T04:31:29;21.20;32.60
48515;DHT22;34309;47.260;2.796;2023-08-06T04:34:03;21.20;32.50
48515;DHT22;34309;47.260;2.796;2023-08-06T04:36:37;21.20;32.50
48515;DHT22;34309;47.260;2.796;2023-08-06T04:39:11;21.20;32.60
48515;DHT22;34309;47.260;2.796;2023-08-06T04:41:46;21.20;32.60
48515;DHT22;34309;47.260;2.796;2023-08-06T04:44:21;21.20;32.60
48515;DHT22;34309;47.260;2.796;2023-08-06T04:46:54;21.20;32.60
48515;DHT22;34309;47.260;2.796;2023-08-06T04:49:28;21.20;32.60
48515;DHT22;34309;47.260;2.796;2023-08-06T04:52:02;21.20;32.60
48515;DHT22;34309;47.260;2.796;2023-08-06T04:54:36;21.20;32.60
48515;DHT22;34309;47.260;2.796;2023-08-06T04:57:11;21.20;32.60
48515;DHT22;34309;47.260;2.796;2023-08-06T04:59:45;21.20;32.60
48515;DHT22;34309;47.260;2.796;2023-08-06T05:02:18;21.20;32.60
48515;DHT22;34309;47.260;2.796;2023-08-06T05:04:52;21.20;32.70
48515;DHT22;34309;47.260;2.796;2023-08-06T05:07:26;21.20;32.70
48515;DHT22;34309;47.260;2.796;2023-08-06T05:09:59;21.20;32.60
48515;DHT22;34309;47.260;2.796;2023-08-06T05:12:35;21.20;32.70
48515;DHT22;34309;47.260;2.796;2023-08-06T05:15:09;21.10;32.50
48515;DHT22;34309;47.260;2.796;2023-08-06T05:17:43;21.20;33.40
48515;DHT22;34309;47.260;2.796;2023-08-06T05:20:16;21.10;32.70
48515;DHT22;34309;47.260;2.796;2023-08-06T05:22:50;21.10;32.60
48515;DHT22;34309;47.260;2.796;2023-08-06T05:25:24;21.20;32.60
48515;DHT22;34309;47.260;2.796;2023-08-06T05:27:59;21.20;32.60
48515;DHT22;34309;47.260;2.796;2023-08-06T05:30:33;21.10;32.70
48515;DHT22;34309;47.260;2.796;2023-08-06T05:33:09;21.10;32.60
48515;DHT22;34309;47.260;2.796;2023-08-06T05:35:43;21.10;32.60
48515;DHT22;34309;47.260;2.796;2023-08-06T05:38:12;21.20;32.70
48515;DHT22;34309;47.260;2.796;2023-08-06T05:40:41;21.20;32.60
48515;DHT22;34309;47.260;2.796;2023-08-06T05:43:16;21.10;32.50
48515;DHT22;34309;47.260;2.796;2023-08-06T05:45:50;21.20;32.70
48515;DHT22;34309;47.260;2.796;2023-08-06T05:48:24;21.10;32.70
48515;DHT22;34309;47.260;2.796;2023-08-06T05:51:00;21.20;32.70
48515;DHT22;34309;47.260;2.796;2023-08-06T05:53:33;21.20;32.80
48515;DHT22;34309;47.260;2.796;2023-08-06T05:56:07;21.10;32.80
48515;DHT22;34309;47.260;2.796;2023-08-06T05:58:42;21.20;32.80
48515;DHT22;34309;47.260;2.796;2023-08-06T06:01:16;21.20;32.70
48515;DHT22;34309;47.260;2.796;2023-08-06T06:03:50;21.20;32.70
48515;DHT22;34309;47.260;2.796;2023-08-06T06:06:23;21.20;32.80
48515;DHT22;34309;47.260;2.796;2023-08-06T06:08:57;21.20;32.80
48515;DHT22;34309;47.260;2.796;2023-08-06T06:11:31;21.20;32.80
48515;DHT22;34309;47.260;2.796;2023-08-06T06:14:06;21.20;32.80
48515;DHT22;34309;47.260;2.796;2023-08-06T06:16:39;21.20;32.80
48515;DHT22;34309;47.260;2.796;2023-08-06T06:19:13;21.20;33.60
48515;DHT22;34309;47.260;2.796;2023-08-06T06:21:42;21.20;33.20
48515;DHT22;34309;47.260;2.796;2023-08-06T06:24:16;21.20;33.10
48515;DHT22;34309;47.260;2.796;2023-08-06T06:26:49;21.20;33.20
48515;DHT22;34309;47.260;2.796;2023-08-06T06:29:25;21.20;33.30
48515;DHT22;34309;47.260;2.796;2023-08-06T06:31:58;21.20;33.00
48515;DHT22;34309;47.260;2.796;2023-08-06T06:34:32;21.20;33.10
48515;DHT22;34309;47.260;2.796;2023-08-06T06:37:06;21.20;33.20
48515;DHT22;34309;47.260;2.796;2023-08-06T06:39:40;21.20;33.20
48515;DHT22;34309;47.260;2.796;2023-08-06T06:42:13;21.20;33.30
48515;DHT22;34309;47.260;2.796;2023-08-06T06:44:50;21.20;33.20
48515;DHT22;34309;47.260;2.796;2023-08-06T06:47:24;21.20;33.40
48515;DHT22;34309;47.260;2.796;2023-08-06T06:49:58;21.20;33.40
48515;DHT22;34309;47.260;2.796;2023-08-06T06:52:32;21.20;33.40
48515;DHT22;34309;47.260;2.796;2023-08-06T06:55:06;21.20;33.40
48515;DHT22;34309;47.260;2.796;2023-08-06T06:57:40;21.20;33.30
48515;DHT22;34309;47.260;2.796;2023-08-06T07:00:15;21.20;33.40
48515;DHT22;34309;47.260;2.796;2023-08-06T07:02:49;21.20;33.50
48515;DHT22;34309;47.260;2.796;2023-08-06T07:05:23;21.20;33.40
48515;DHT22;34309;47.260;2.796;2023-08-06T07:07:57;21.30;33.70
48515;DHT22;34309;47.260;2.796;2023-08-06T07:10:30;21.30;33.60
48515;DHT22;34309;47.260;2.796;2023-08-06T07:13:04;21.20;33.60
48515;DHT22;34309;47.260;2.796;2023-08-06T07:15:39;21.20;33.60
48515;DHT22;34309;47.260;2.796;2023-08-06T07:18:13;21.20;33.40
48515;DHT22;34309;47.260;2.796;2023-08-06T07:20:48;21.30;33.70
48515;DHT22;34309;47.260;2.796;2023-08-06T07:23:23;21.20;34.40
